Time;durP1;ratioP1;P1;durP2;ratioP2;P2;SDS_P1;SDS_P2;PMS_P1;PMS_P2;Temp;Humidity;BMP_temperature;BMP_pressure;BME280_temperature;BME280_humidity;BME280_pressure;Samples;Min_cycle;Max_cycle;Signal;HPM_P1;HPM_P2
2023/10/12 00:00:48;;;;;;;11.35;4.82;;;17.10;99.90;;;;;;5062414;28;20051;-85
2023/10/12 00:03:16;;;;;;;11.07;4.47;;;17.10;99.90;;;;;;5057086;28;20029;-85
2023/10/12 00:06:05;;;;;;;9.88;5.00;;;17.10;99.90;;;;;;5066775;28;20028;-85
2023/10/12 00:08:31;;;;;;;11.35;5.13;;;17.00;99.90;;;;;;5060201;28;20030;-86
2023/10/12 00:10:57;;;;;;;10.38;5.00;;;17.00;99.90;;;;;;5064436;28;20109;-86
2023/10/12 00:13:28;;;;;;;12.10;5.20;;;17.00;99.90;;;;;;5072025;28;20037;-90
2023/10/12 00:16:21;;;;;;;12.40;5.60;;;16.90;99.90;;;;;;5067360;28;20029;-86
2023/10/12 00:19:27;;;;;;;11.25;5.22;;;16.90;99.90;;;;;;5065684;28;20052;-84
2023/10/12 00:22:01;;;;;;;12.30;4.50;;;16.90;99.90;;;;;;5048273;28;20042;-86
2023/10/12 00:24:27;;;;;;;14.38;5.07;;;16.80;99.90;;;;;;5049831;28;20033;-84
2023/10/12 00:26:54;;;;;;;12.25;4.88;;;16.80;99.90;;;;;;5126770;22;20055;-88
2023/10/12 00:29:21;;;;;;;13.65;5.22;;;16.70;99.90;;;;;;5050952;28;20025;-86
2023/10/12 00:31:49;;;;;;;10.38;4.88;;;16.70;99.90;;;;;;5066338;28;20029;-88
2023/10/12 00:34:15;;;;;;;9.70;4.95;;;17.20;99.90;;;;;;5057205;28;20017;-85
2023/10/12 00:36:45;;;;;;;10.73;5.00;;;16.60;99.90;;;;;;5056143;28;20029;-87
2023/10/12 00:39:11;;;;;;;12.52;5.07;;;16.60;99.90;;;;;;5051132;28;20450;-86
2023/10/12 00:41:51;;;;;;;12.45;5.10;;;16.50;99.90;;;;;;5054780;28;20041;-88
2023/10/12 00:44:19;;;;;;;13.13;5.00;;;17.40;99.90;;;;;;5053383;28;20029;-88
2023/10/12 00:49:26;;;;;;;9.93;4.20;;;16.40;99.90;;;;;;5049874;28;20490;-87
2023/10/12 00:52:08;;;;;;;14.05;5.32;;;16.40;99.90;;;;;;5050828;28;20029;-87
2023/10/12 00:54:43;;;;;;;11.68;4.97;;;16.40;99.90;;;;;;5044182;28;20029;-88
2023/10/12 00:57:12;;;;;;;14.15;5.25;;;16.40;99.90;;;;;;5051249;28;20017;-88
2023/10/12 00:59:43;;;;;;;13.40;4.93;;;15.90;99.90;;;;;;5052040;28;20047;-87
2023/10/12 01:02:11;;;;;;;10.77;4.80;;;16.30;99.90;;;;;;5049337;28;20029;-86
2023/10/12 01:04:52;;;;;;;10.63;5.00;;;16.40;99.90;;;;;;5051217;28;20033;-84
2023/10/12 01:07:25;;;;;;;11.18;4.63;;;17.40;99.90;;;;;;5050432;28;20060;-87
2023/10/12 01:10:03;;;;;;;10.48;4.70;;;16.30;99.90;;;;;;5067067;28;20028;-87
2023/10/12 01:12:30;;;;;;;11.02;4.82;;;16.30;99.90;;;;;;5051852;28;20131;-87
2023/10/12 01:14:56;;;;;;;13.13;5.47;;;16.30;99.90;;;;;;5047697;28;20029;-87
2023/10/12 01:17:29;;;;;;;9.63;4.78;;;16.00;99.90;;;;;;5050188;28;20097;-88
2023/10/12 01:19:57;;;;;;;12.05;4.78;;;15.60;99.90;;;;;;5051397;28;20043;-87
2023/10/12 01:22:26;;;;;;;14.50;4.80;;;16.20;99.90;;;;;;5067978;28;20493;-88
2023/10/12 01:27:21;;;;;;;10.73;4.78;;;16.50;99.90;;;;;;5049305;28;20081;-88
2023/10/12 01:29:50;;;;;;;12.98;5.07;;;16.50;99.90;;;;;;5057133;28;20036;-83
2023/10/12 01:32:24;;;;;;;8.98;4.72;;;16.10;99.90;;;;;;5071127;28;20021;-87
2023/10/12 01:34:52;;;;;;;11.55;4.72;;;16.00;99.90;;;;;;5061598;28;20025;-87
2023/10/12 01:37:41;;;;;;;11.93;4.68;;;16.10;99.90;;;;;;5062889;28;20056;-86
2023/10/12 01:40:18;;;;;;;10.43;5.07;;;16.00;99.90;;;;;;5060708;28;20120;-89
2023/10/12 01:48:11;;;;;;;12.40;5.35;;;15.90;99.90;;;;;;5051750;28;20021;-88
2023/10/12 01:50:48;;;;;;;14.80;5.20;;;15.80;99.90;;;;;;5055735;28;20044;-87
2023/10/12 01:55:54;;;;;;;11.75;5.07;;;15.80;99.90;;;;;;5047701;28;20025;-85
2023/10/12 01:58:32;;;;;;;10.88;4.55;;;15.80;99.90;;;;;;5045764;28;20347;-87
2023/10/12 02:01:18;;;;;;;12.20;5.13;;;15.80;99.90;;;;;;5048347;28;20037;-88
2023/10/12 02:03:48;;;;;;;11.52;5.30;;;16.70;99.90;;;;;;5044775;28;20033;-88
2023/10/12 02:06:19;;;;;;;10.77;5.07;;;15.80;99.90;;;;;;5048444;28;20189;-87
2023/10/12 02:08:53;;;;;;;11.50;4.60;;;15.80;99.90;;;;;;5045690;28;20111;-89
2023/10/12 02:13:48;;;;;;;8.18;4.55;;;15.80;99.90;;;;;;5044068;28;20025;-87
2023/10/12 02:16:24;;;;;;;12.48;4.70;;;16.40;99.90;;;;;;5048211;28;20064;-86
2023/10/12 02:19:04;;;;;;;9.95;4.75;;;15.60;99.90;;;;;;5042349;28;20075;-87
2023/10/12 02:21:33;;;;;;;9.52;5.13;;;16.10;99.90;;;;;;5043956;28;20060;-86
2023/10/12 02:34:31;;;;;;;15.15;5.18;;;15.70;99.90;;;;;;5047026;28;20104;-88
2023/10/12 02:37:00;;;;;;;9.48;5.00;;;15.70;99.90;;;;;;5051779;28;20021;-86
2023/10/12 02:39:56;;;;;;;10.63;5.07;;;15.90;99.90;;;;;;5037028;28;20052;-86
2023/10/12 02:45:50;;;;;;;8.82;4.80;;;15.60;99.90;;;;;;4987774;28;20125;-87
2023/10/12 02:48:53;;;;;;;9.88;5.13;;;15.60;99.90;;;;;;5040549;28;20120;-90
2023/10/12 02:52:16;;;;;;;8.40;4.78;;;15.50;99.90;;;;;;5026939;28;20136;-88
2023/10/12 02:54:50;;;;;;;11.65;4.85;;;15.50;99.90;;;;;;5047302;28;20498;-88
2023/10/12 02:57:33;;;;;;;;;;;;;;;;;;;;;
2023/10/12 03:00:32;;;;;;;9.57;5.07;;;16.00;99.90;;;;;;5050077;28;20025;-83
2023/10/12 03:06:00;;;;;;;13.02;6.07;;;15.40;99.90;;;;;;5046762;28;20040;-87
2023/10/12 03:08:32;;;;;;;11.68;5.78;;;15.40;99.90;;;;;;5044412;28;20041;-86
2023/10/12 03:11:15;;;;;;;12.63;4.95;;;15.30;99.90;;;;;;5047589;28;20376;-86
2023/10/12 03:14:26;;;;;;;13.02;5.78;;;15.30;99.90;;;;;;5055455;28;20041;-86
2023/10/12 03:17:16;;;;;;;12.05;4.88;;;15.30;99.90;;;;;;5047334;28;20036;-88
2023/10/12 03:19:55;;;;;;;10.45;5.25;;;15.30;99.90;;;;;;5053583;28;20060;-85
2023/10/12 03:22:54;;;;;;;8.07;5.07;;;15.40;99.90;;;;;;5062913;28;20135;-87
2023/10/12 03:25:46;;;;;;;11.43;5.25;;;15.30;99.90;;;;;;5040674;28;20410;-86
2023/10/12 03:31:41;;;;;;;10.77;5.55;;;15.40;99.90;;;;;;5052192;28;20032;-89
2023/10/12 03:37:15;;;;;;;12.27;5.35;;;15.30;99.90;;;;;;5049313;28;20036;-86
2023/10/12 03:39:59;;;;;;;19.35;5.80;;;15.30;99.90;;;;;;5047486;28;20474;-87
2023/10/12 03:47:36;;;;;;;14.80;4.85;;;15.20;99.90;;;;;;5032489;22;20053;-82
2023/10/12 03:50:07;;;;;;;11.10;5.43;;;15.30;99.90;;;;;;5009849;28;20029;-85
2023/10/12 03:52:39;;;;;;;;;;;15.30;99.90;;;;;;5015472;28;20033;-83
2023/10/12 04:02:39;;;;;;;15.10;5.57;;;15.30;99.90;;;;;;5006275;28;20050;-82
2023/10/12 04:05:21;;;;;;;15.95;5.85;;;15.30;99.90;;;;;;4988662;28;20442;-85
2023/10/12 04:11:06;;;;;;;11.07;5.28;;;15.30;99.90;;;;;;5006331;28;22087;-86
2023/10/12 04:13:09;;;;;;;10.30;5.05;;;15.30;99.90;;;;;;5003405;28;20085;-85
2023/10/12 04:18:28;;;;;;;9.98;5.40;;;15.30;99.90;;;;;;4985031;28;20088;-85
2023/10/12 04:20:57;;;;;;;8.70;5.13;;;15.30;99.90;;;;;;4983285;28;20819;-83
2023/10/12 04:28:58;;;;;;;10.05;5.10;;;15.40;99.90;;;;;;5004134;28;20056;-85
2023/10/12 04:34:08;;;;;;;13.45;5.25;;;15.40;99.90;;;;;;5007976;28;20057;-84
2023/10/12 04:36:45;;;;;;;12.32;5.13;;;15.40;99.90;;;;;;4996287;28;20490;-84
2023/10/12 04:39:27;;;;;;;14.23;5.68;;;15.40;99.90;;;;;;4989200;28;20679;-85
2023/10/12 04:42:00;;;;;;;10.32;5.18;;;15.40;99.90;;;;;;4977914;28;20084;-83
2023/10/12 04:54:28;;;;;;;14.50;5.80;;;15.40;99.90;;;;;;4996808;28;20232;-82
2023/10/12 04:56:57;;;;;;;10.25;5.47;;;15.40;99.90;;;;;;5002572;28;20049;-83
2023/10/12 04:59:28;;;;;;;12.40;4.88;;;15.40;99.90;;;;;;4988640;28;20034;-84
2023/10/12 05:05:14;;;;;;;11.63;5.30;;;15.40;99.90;;;;;;4998877;28;20025;-81
2023/10/12 05:09:49;;;;;;;12.10;5.47;;;15.40;99.90;;;;;;4996783;28;20084;-85
2023/10/12 05:12:20;;;;;;;18.63;5.75;;;15.40;99.90;;;;;;4986050;28;20022;-83
2023/10/12 05:14:47;;;;;;;12.30;5.75;;;15.50;99.90;;;;;;5000846;28;20060;-85
2023/10/12 05:17:14;;;;;;;13.23;5.53;;;15.50;99.90;;;;;;4986312;28;20026;-83
2023/10/12 05:19:41;;;;;;;10.73;6.13;;;15.50;99.90;;;;;;4986709;28;20045;-79
2023/10/12 05:22:06;;;;;;;9.95;5.78;;;15.50;99.90;;;;;;4984987;28;20026;-85
2023/10/12 05:24:32;;;;;;;9.73;5.35;;;15.50;99.90;;;;;;5002765;28;20018;-86
2023/10/12 05:27:09;;;;;;;10.43;5.43;;;15.40;99.90;;;;;;5006996;28;20030;-84
2023/10/12 05:29:45;;;;;;;10.93;6.10;;;15.50;99.90;;;;;;4986502;28;20085;-88
2023/10/12 05:37:23;;;;;;;14.55;7.18;;;15.50;99.90;;;;;;5019647;28;20504;-85
2023/10/12 05:39:59;;;;;;;12.60;5.72;;;15.50;99.90;;;;;;4993315;28;20042;-87
2023/10/12 05:42:27;;;;;;;9.93;6.00;;;15.50;99.90;;;;;;5011305;28;20124;-86
2023/10/12 05:45:17;;;;;;;13.18;5.90;;;15.50;99.90;;;;;;4998258;28;20458;-86
2023/10/12 05:47:43;;;;;;;9.95;5.15;;;15.40;99.90;;;;;;5013208;28;20398;-88
2023/10/12 05:50:15;;;;;;;11.60;5.75;;;15.40;99.90;;;;;;4997446;28;20037;-87
2023/10/12 05:52:40;;;;;;;13.13;6.00;;;15.40;99.90;;;;;;4998330;28;20079;-89
2023/10/12 05:55:19;;;;;;;16.20;6.10;;;15.40;99.90;;;;;;4995734;28;20030;-85
2023/10/12 05:57:45;;;;;;;27.90;6.40;;;15.40;99.90;;;;;;4995822;28;20030;-88
2023/10/12 06:00:11;;;;;;;19.17;6.80;;;15.40;99.90;;;;;;4996824;28;20052;-85
2023/10/12 06:02:40;;;;;;;15.23;6.07;;;15.40;99.90;;;;;;5005138;28;20160;-87
2023/10/12 06:05:07;;;;;;;11.35;6.10;;;15.50;99.90;;;;;;4994272;28;20065;-85
2023/10/12 06:07:33;;;;;;;14.82;6.30;;;15.50;99.90;;;;;;4990564;28;20038;-87
2023/10/12 06:09:58;;;;;;;9.65;5.47;;;15.50;99.90;;;;;;4964773;28;20044;-82
2023/10/12 06:12:24;;;;;;;15.45;5.30;;;15.60;99.90;;;;;;4993108;28;20064;-89
2023/10/12 06:14:53;;;;;;;11.68;5.57;;;15.60;99.90;;;;;;4985301;28;20057;-88
2023/10/12 06:17:30;;;;;;;11.55;5.53;;;15.70;99.90;;;;;;4984289;28;20040;-83
2023/10/12 06:20:10;;;;;;;13.20;6.18;;;15.70;99.90;;;;;;4992169;28;20057;-82
2023/10/12 06:22:36;;;;;;;12.65;5.90;;;15.80;99.90;;;;;;4994889;28;20021;-84
2023/10/12 06:25:07;;;;;;;21.13;10.60;;;15.80;99.90;;;;;;4994967;28;20030;-83
2023/10/12 06:27:33;;;;;;;14.50;6.45;;;15.80;99.90;;;;;;4997443;28;20018;-85
2023/10/12 06:30:06;;;;;;;15.45;6.25;;;15.90;99.90;;;;;;5008345;28;20032;-86
2023/10/12 06:32:31;;;;;;;15.68;6.18;;;15.90;99.90;;;;;;4998779;28;20626;-85
2023/10/12 06:41:00;;;;;;;17.52;6.55;;;15.90;99.90;;;;;;5015035;28;20037;-85
2023/10/12 06:45:51;;;;;;;16.50;6.25;;;16.00;99.90;;;;;;5015435;28;20058;-83
2023/10/12 06:48:23;;;;;;;12.10;5.60;;;16.10;99.90;;;;;;5017707;28;20033;-84
2023/10/12 06:50:53;;;;;;;17.15;5.95;;;16.10;99.90;;;;;;4993003;28;20038;-84
2023/10/12 06:53:24;;;;;;;;;;;16.20;99.90;;;;;;4994420;28;20029;-86
2023/10/12 06:55:58;;;;;;;18.98;6.15;;;16.20;99.90;;;;;;5017613;28;19928;-85
2023/10/12 06:58:36;;;;;;;12.65;5.88;;;16.30;99.90;;;;;;4998579;28;20112;-83
2023/10/12 07:03:47;;;;;;;14.23;5.88;;;16.50;99.90;;;;;;5008927;28;20045;-83
2023/10/12 07:06:15;;;;;;;11.68;6.45;;;16.40;99.90;;;;;;4991887;28;20022;-82
2023/10/12 07:08:42;;;;;;;11.70;5.93;;;16.40;99.90;;;;;;4990492;28;20041;-84
2023/10/12 07:11:11;;;;;;;13.75;6.55;;;16.50;99.90;;;;;;5006099;28;20022;-86
2023/10/12 07:13:39;;;;;;;11.90;5.70;;;16.40;99.90;;;;;;4986640;28;20112;-85
2023/10/12 07:16:08;;;;;;;11.52;6.32;;;16.50;99.90;;;;;;5009949;28;20090;-84
2023/10/12 07:18:35;;;;;;;14.13;5.65;;;16.50;99.90;;;;;;4994725;28;20053;-83
2023/10/12 07:21:05;;;;;;;12.63;5.97;;;16.50;99.90;;;;;;4995083;28;20030;-83
2023/10/12 07:23:42;;;;;;;227.63;23.90;;;16.50;99.90;;;;;;4995061;28;20026;-81
2023/10/12 07:26:12;;;;;;;12.98;6.00;;;16.50;99.90;;;;;;4993920;28;20132;-80
2023/10/12 07:28:41;;;;;;;14.40;6.45;;;16.50;99.90;;;;;;5010427;28;20030;-83
2023/10/12 07:36:44;;;;;;;13.32;6.90;;;16.50;99.90;;;;;;5005195;28;20057;-87
2023/10/12 07:39:53;;;;;;;14.80;6.60;;;16.60;99.90;;;;;;4992582;28;20161;-84
2023/10/12 07:42:00;;;;;;;16.88;7.20;;;16.60;99.90;;;;;;5003805;28;20209;-85
2023/10/12 07:44:27;;;;;;;10.15;6.40;;;16.60;99.90;;;;;;5007686;28;20034;-85
2023/10/12 07:46:56;;;;;;;61.75;14.00;;;16.60;99.90;;;;;;4993567;28;20027;-81
2023/10/12 07:49:36;;;;;;;18.27;8.20;;;16.70;99.90;;;;;;4993280;28;20033;-84
2023/10/12 07:54:47;;;;;;;17.38;7.47;;;16.70;99.90;;;;;;5003393;28;20090;-84
2023/10/12 07:57:20;;;;;;;19.33;7.75;;;16.80;99.90;;;;;;4990824;28;20046;-82
2023/10/12 07:59:58;;;;;;;12.27;7.20;;;16.80;99.90;;;;;;5001694;28;20026;-84
2023/10/12 08:13:14;;;;;;;22.98;7.43;;;17.20;99.90;;;;;;5018165;28;20100;-84
2023/10/12 08:15:56;;;;;;;13.73;7.35;;;17.30;99.90;;;;;;4996680;28;20034;-84
2023/10/12 08:24:04;;;;;;;11.85;6.95;;;17.40;99.90;;;;;;5013207;28;20072;-85
2023/10/12 08:26:57;;;;;;;13.50;7.07;;;17.50;99.90;;;;;;5009954;28;20022;-81
2023/10/12 08:37:18;;;;;;;19.15;7.65;;;17.80;99.90;;;;;;5018261;28;20018;-84
2023/10/12 08:40:06;;;;;;;17.73;7.70;;;17.80;99.90;;;;;;5000792;28;20032;-83
2023/10/12 08:45:15;;;;;;;14.10;7.63;;;17.90;99.90;;;;;;5012170;28;20041;-85
2023/10/12 08:47:44;;;;;;;11.98;6.88;;;17.80;99.90;;;;;;5009321;28;20371;-84
2023/10/12 08:53:05;;;;;;;15.32;7.40;;;17.80;99.90;;;;;;5008362;28;20030;-84
2023/10/12 08:55:41;;;;;;;14.18;7.35;;;17.80;99.90;;;;;;4994285;28;20351;-84
2023/10/12 08:58:25;;;;;;;10.95;6.35;;;17.80;99.90;;;;;;4998540;28;20036;-83
2023/10/12 09:03:37;;;;;;;18.23;8.50;;;17.80;99.90;;;;;;5005850;28;20053;-86
2023/10/12 09:06:53;;;;;;;17.23;7.40;;;17.80;99.90;;;;;;4981562;28;20026;-83
2023/10/12 09:09:48;;;;;;;14.65;7.93;;;17.80;99.90;;;;;;5000877;28;20545;-83
2023/10/12 09:12:11;;;;;;;16.23;7.55;;;17.80;99.90;;;;;;4990817;28;20042;-84
2023/10/12 09:15:08;;;;;;;14.73;6.80;;;17.70;99.90;;;;;;4975182;28;20156;-87
2023/10/12 09:17:29;;;;;;;13.80;7.57;;;17.80;99.90;;;;;;4993054;28;20042;-83
2023/10/12 09:23:05;;;;;;;17.30;7.35;;;17.80;99.90;;;;;;4965378;28;20049;-83
2023/10/12 09:28:15;;;;;;;15.02;8.48;;;18.00;99.90;;;;;;5009672;28;20096;-85
2023/10/12 09:30:57;;;;;;;;;;;;;;;;;;;;;
2023/10/12 09:36:24;;;;;;;15.25;8.43;;;17.90;99.90;;;;;;5002631;28;20044;-83
2023/10/12 09:38:57;;;;;;;18.48;8.60;;;18.00;99.90;;;;;;4991466;28;20093;-84
2023/10/12 09:41:33;;;;;;;21.45;9.05;;;18.20;99.90;;;;;;5001978;28;20048;-84
2023/10/12 09:44:04;;;;;;;17.55;8.57;;;18.20;99.90;;;;;;4985134;28;20712;-85
2023/10/12 09:46:32;;;;;;;15.75;8.95;;;18.30;99.90;;;;;;4991939;28;20029;-85
2023/10/12 09:49:02;;;;;;;17.70;8.10;;;18.30;99.90;;;;;;5002310;28;20041;-85
2023/10/12 09:51:39;;;;;;;18.13;7.95;;;18.40;99.90;;;;;;5008258;28;20026;-83
2023/10/12 09:54:16;;;;;;;17.92;9.25;;;18.60;99.90;;;;;;5005265;28;20022;-86
2023/10/12 09:56:57;;;;;;;13.70;7.63;;;18.70;99.90;;;;;;4978238;28;20029;-84
2023/10/12 09:59:28;;;;;;;14.13;7.40;;;18.80;99.90;;;;;;4983384;28;20475;-84
2023/10/12 10:02:27;;;;;;;15.55;7.57;;;18.90;99.90;;;;;;5001703;28;20060;-84
2023/10/12 10:05:14;;;;;;;13.88;7.38;;;18.90;99.90;;;;;;5003418;28;20065;-84
2023/10/12 10:07:55;;;;;;;13.90;8.50;;;19.00;99.90;;;;;;4993937;28;20084;-80
2023/10/12 10:10:35;;;;;;;16.35;7.95;;;19.00;99.90;;;;;;4973541;28;20037;-83
2023/10/12 10:13:15;;;;;;;14.25;7.88;;;19.00;99.90;;;;;;4986229;28;20026;-83
2023/10/12 10:16:00;;;;;;;18.80;7.90;;;18.90;99.90;;;;;;4979810;28;20077;-86
2023/10/12 10:18:42;;;;;;;20.63;8.63;;;18.80;99.90;;;;;;4995960;28;20030;-82
2023/10/12 10:21:31;;;;;;;14.27;7.22;;;18.80;99.90;;;;;;5002577;28;20044;-82
2023/10/12 10:23:59;;;;;;;17.58;7.80;;;18.80;99.90;;;;;;4979082;28;20034;-81
2023/10/12 10:26:34;;;;;;;19.42;7.68;;;18.80;99.90;;;;;;4982217;28;20022;-84
2023/10/12 10:29:05;;;;;;;15.18;7.32;;;18.80;99.90;;;;;;5000027;28;20026;-81
2023/10/12 10:31:36;;;;;;;13.95;7.15;;;18.80;99.90;;;;;;4989493;28;20029;-84
2023/10/12 10:34:23;;;;;;;18.73;7.50;;;18.70;99.90;;;;;;4986117;28;20045;-80
2023/10/12 10:36:53;;;;;;;17.10;7.50;;;18.70;99.90;;;;;;5000617;28;20041;-82
2023/10/12 10:41:54;;;;;;;16.02;7.40;;;18.70;99.90;;;;;;4993420;28;20027;-81
2023/10/12 10:44:26;;;;;;;14.15;6.90;;;18.60;99.90;;;;;;4999084;28;20030;-83
2023/10/12 10:47:00;;;;;;;16.90;6.70;;;18.50;99.90;;;;;;4978466;28;20029;-85
2023/10/12 10:49:32;;;;;;;14.95;7.20;;;18.40;99.90;;;;;;4993911;28;20036;-84
2023/10/12 10:54:39;;;;;;;16.10;6.95;;;18.40;99.90;;;;;;5000086;28;20075;-83
2023/10/12 10:57:15;;;;;;;;;;;18.40;99.90;;;;;;4986890;28;20034;-84
2023/10/12 10:59:44;;;;;;;16.67;7.93;;;18.40;99.90;;;;;;4999829;28;19917;-83
2023/10/12 11:02:21;;;;;;;18.58;9.27;;;18.40;99.90;;;;;;4995195;28;20768;-86
2023/10/12 11:04:47;;;;;;;14.15;7.28;;;18.40;99.90;;;;;;4996664;28;20028;-84
2023/10/12 11:07:20;;;;;;;16.15;6.97;;;18.40;99.90;;;;;;4989887;28;20129;-85
2023/10/12 11:12:22;;;;;;;12.23;6.82;;;18.40;99.90;;;;;;5003842;28;20461;-82
2023/10/12 11:14:52;;;;;;;17.65;6.40;;;18.40;99.90;;;;;;4984595;28;20038;-82
2023/10/12 11:17:20;;;;;;;15.23;7.20;;;18.40;99.90;;;;;;5002142;28;20034;-82
2023/10/12 11:19:49;;;;;;;16.95;6.57;;;18.40;99.90;;;;;;4983453;28;20042;-82
2023/10/12 11:22:15;;;;;;;14.63;8.18;;;18.40;99.90;;;;;;4996136;28;20032;-82
2023/10/12 11:24:45;;;;;;;14.20;8.35;;;18.30;99.90;;;;;;4988601;28;20517;-81
2023/10/12 11:27:32;;;;;;;12.20;6.55;;;18.30;99.90;;;;;;4988955;28;20030;-81
2023/10/12 11:30:18;;;;;;;;;;;;;;;;;;;;;
2023/10/12 11:32:58;;;;;;;14.25;6.45;;;18.30;99.90;;;;;;5001767;28;20041;-85
2023/10/12 11:35:42;;;;;;;;;;;18.20;99.90;;;;;;4999612;28;20062;-83
2023/10/12 11:38:19;;;;;;;13.00;6.38;;;18.20;99.90;;;;;;4993010;28;19909;-82
2023/10/12 11:41:04;;;;;;;;;;;;;;;;;;;;;
2023/10/12 11:43:52;;;;;;;16.75;7.05;;;18.30;99.90;;;;;;4993879;28;20513;-81
2023/10/12 11:46:18;;;;;;;15.27;7.85;;;18.30;99.90;;;;;;4982773;28;20057;-84
2023/10/12 11:48:47;;;;;;;12.80;7.47;;;18.20;99.90;;;;;;4983740;28;20542;-81
2023/10/12 11:51:12;;;;;;;13.43;7.05;;;18.20;99.90;;;;;;4986160;28;20048;-85
2023/10/12 11:53:39;;;;;;;14.68;7.00;;;18.20;99.90;;;;;;4994889;28;20080;-82
2023/10/12 11:56:17;;;;;;;14.68;7.68;;;18.20;99.90;;;;;;4988275;28;20494;-86
2023/10/12 11:58:50;;;;;;;14.32;8.00;;;18.30;99.90;;;;;;4998792;28;20057;-84
2023/10/12 12:01:18;;;;;;;18.30;7.90;;;18.40;99.90;;;;;;5014332;28;20048;-81
2023/10/12 12:03:45;;;;;;;16.80;8.30;;;18.40;99.90;;;;;;5007690;28;20552;-83
2023/10/12 12:06:21;;;;;;;14.82;8.30;;;18.50;99.90;;;;;;4996591;28;20033;-83
2023/10/12 12:08:47;;;;;;;22.45;9.45;;;18.50;99.90;;;;;;5008224;28;20084;-85
2023/10/12 12:11:15;;;;;;;21.30;10.63;;;18.50;99.90;;;;;;5008224;28;20403;-83
2023/10/12 12:13:47;;;;;;;19.70;10.63;;;18.50;99.90;;;;;;4993061;28;20022;-81
2023/10/12 12:16:19;;;;;;;19.80;10.25;;;18.50;99.90;;;;;;4990873;28;20370;-83
2023/10/12 12:18:52;;;;;;;20.58;10.38;;;18.60;99.90;;;;;;5005047;28;20026;-85
2023/10/12 12:21:29;;;;;;;18.35;8.98;;;18.70;99.90;;;;;;5006812;28;20072;-84
2023/10/12 12:24:21;;;;;;;19.27;10.00;;;18.70;99.90;;;;;;5003884;28;20027;-81
2023/10/12 20:21:17;;;;;;;19.50;11.18;;;16.60;99.90;;;;;;5037711;28;20085;-87
2023/10/12 20:23:47;;;;;;;17.45;10.45;;;16.60;99.90;;;;;;5037379;28;20034;-89
2023/10/12 20:26:22;;;;;;;27.05;11.13;;;16.60;99.90;;;;;;5016231;28;20014;-88
2023/10/12 20:28:48;;;;;;;19.65;11.63;;;16.60;99.90;;;;;;5003523;28;20394;-90
2023/10/12 20:31:14;;;;;;;21.10;11.65;;;17.00;99.90;;;;;;5010544;28;20026;-88
2023/10/12 20:33:42;;;;;;;17.20;11.00;;;16.60;99.90;;;;;;4997019;28;20052;-92
2023/10/12 20:36:12;;;;;;;19.00;11.20;;;16.60;99.90;;;;;;5005590;28;20022;-90
2023/10/12 20:38:38;;;;;;;18.42;11.30;;;16.60;99.90;;;;;;5031085;28;20030;-89
2023/10/12 20:41:04;;;;;;;20.15;11.20;;;16.60;99.90;;;;;;5003456;28;20072;-89
2023/10/12 20:43:37;;;;;;;21.23;10.45;;;16.70;99.90;;;;;;5005866;28;20029;-89
2023/10/12 20:46:09;;;;;;;20.20;10.23;;;16.60;99.90;;;;;;5017039;28;20028;-90
2023/10/12 20:48:35;;;;;;;19.23;11.45;;;16.60;99.90;;;;;;5002657;28;20030;-87
2023/10/12 20:51:04;;;;;;;20.55;10.98;;;16.60;99.90;;;;;;4999648;28;20030;-88
2023/10/12 20:53:33;;;;;;;20.17;11.10;;;16.60;99.90;;;;;;5001410;28;20058;-87
2023/10/12 20:56:06;;;;;;;21.67;11.30;;;16.60;99.90;;;;;;5016924;28;20037;-88
2023/10/12 20:58:42;;;;;;;21.35;11.43;;;16.60;99.90;;;;;;5016454;28;20041;-90
2023/10/12 21:01:31;;;;;;;21.00;10.85;;;16.60;99.90;;;;;;5001142;28;20158;-90
2023/10/12 21:03:57;;;;;;;19.90;10.88;;;16.60;99.90;;;;;;5014861;28;20981;-86
2023/10/12 21:06:32;;;;;;;22.10;11.32;;;16.60;99.90;;;;;;5003621;28;20033;-89
2023/10/12 21:09:04;;;;;;;20.95;11.63;;;16.60;99.90;;;;;;5007559;28;20093;-90
2023/10/12 21:11:32;;;;;;;25.83;11.82;;;16.60;99.90;;;;;;5017166;28;20057;-88
2023/10/12 21:14:00;;;;;;;19.15;11.18;;;16.60;99.90;;;;;;5002553;28;20033;-89
2023/10/12 21:16:37;;;;;;;24.40;11.45;;;16.60;99.90;;;;;;5026542;28;20144;-89
2023/10/12 21:19:13;;;;;;;18.77;11.23;;;16.60;99.90;;;;;;5003103;28;20048;-87
2023/10/12 21:21:39;;;;;;;18.15;11.13;;;16.60;99.90;;;;;;5003024;28;20113;-87
2023/10/12 21:24:12;;;;;;;19.25;10.82;;;16.60;99.90;;;;;;4998319;28;20058;-87
2023/10/12 21:26:41;;;;;;;20.73;10.90;;;16.70;99.90;;;;;;5024489;28;20025;-90
2023/10/12 21:29:08;;;;;;;19.52;11.23;;;16.70;99.90;;;;;;4998111;28;20042;-88
2023/10/12 21:31:35;;;;;;;22.45;11.05;;;16.70;99.90;;;;;;4991510;28;20123;-90
2023/10/12 21:34:06;;;;;;;14.50;10.23;;;16.70;99.90;;;;;;4997133;28;20117;-87
2023/10/12 21:36:50;;;;;;;18.55;10.63;;;16.70;99.90;;;;;;4991303;28;20041;-87
2023/10/12 21:39:29;;;;;;;20.90;11.00;;;16.70;99.90;;;;;;4996250;28;20033;-88
2023/10/12 21:41:58;;;;;;;19.38;11.00;;;16.80;99.90;;;;;;4985714;28;20030;-89
2023/10/12 21:44:40;;;;;;;18.25;10.40;;;16.80;99.90;;;;;;4997162;28;20093;-90
2023/10/12 21:47:13;;;;;;;21.77;10.32;;;16.70;99.90;;;;;;5015763;28;20032;-89
2023/10/12 21:49:49;;;;;;;;;;;;;;;;;;;;;
2023/10/12 21:52:26;;;;;;;17.55;10.05;;;16.70;99.90;;;;;;5022681;28;20089;-89
2023/10/12 21:55:07;;;;;;;20.65;10.40;;;16.70;99.90;;;;;;5003900;28;20026;-89
2023/10/12 21:57:36;;;;;;;20.80;11.13;;;16.70;99.90;;;;;;4994612;28;20026;-88
2023/10/12 22:00:08;;;;;;;22.67;11.20;;;16.80;99.90;;;;;;5018404;28;20034;-89
2023/10/12 22:02:42;;;;;;;17.13;10.27;;;16.70;99.90;;;;;;5005675;28;20034;-89
2023/10/12 22:05:25;;;;;;;19.88;11.10;;;16.70;99.90;;;;;;5010959;28;20038;-89
2023/10/12 22:07:54;;;;;;;22.05;10.73;;;16.60;99.90;;;;;;5009316;28;20101;-88
2023/10/12 22:10:28;;;;;;;16.35;10.52;;;16.70;99.90;;;;;;4997208;28;20045;-88
2023/10/12 22:16:01;;;;;;;15.85;10.27;;;16.70;99.90;;;;;;4996502;28;20045;-89
2023/10/12 22:18:36;;;;;;;20.42;10.50;;;16.70;99.90;;;;;;5014543;28;20038;-88
2023/10/12 22:21:12;;;;;;;25.73;10.27;;;16.50;99.90;;;;;;5016025;28;20038;-88
2023/10/12 22:23:45;;;;;;;19.23;10.43;;;16.70;99.90;;;;;;4998773;28;20066;-87
2023/10/12 22:26:14;;;;;;;18.70;9.88;;;16.80;99.90;;;;;;5000420;28;20136;-89
2023/10/12 22:28:46;;;;;;;17.95;9.63;;;16.70;99.90;;;;;;5002968;28;20030;-88
2023/10/12 22:31:18;;;;;;;23.90;9.90;;;16.70;99.90;;;;;;5023979;28;20471;-88
2023/10/12 22:33:46;;;;;;;19.50;10.13;;;16.70;99.90;;;;;;5035080;28;20045;-86
2023/10/12 22:36:24;;;;;;;18.55;10.02;;;16.70;99.90;;;;;;5027503;28;20030;-87
2023/10/12 22:38:52;;;;;;;19.35;10.43;;;16.70;99.90;;;;;;5005404;28;20118;-90
2023/10/12 22:41:20;;;;;;;19.10;9.40;;;16.80;99.90;;;;;;5016421;28;20030;-89
2023/10/12 22:43:50;;;;;;;19.75;10.02;;;16.70;99.90;;;;;;5021354;28;20026;-89
2023/10/12 23:05:26;;;;;;;19.67;9.93;;;16.70;99.90;;;;;;5016212;28;20049;-84
2023/10/12 23:08:48;;;;;;;17.30;10.13;;;16.70;99.90;;;;;;4990383;28;20034;-82
2023/10/12 23:12:11;;;;;;;18.55;9.77;;;16.60;99.90;;;;;;4925893;28;20043;-85
2023/10/12 23:14:44;;;;;;;17.38;10.02;;;16.60;99.90;;;;;;4944346;28;20041;-84
2023/10/12 23:17:13;;;;;;;18.58;10.27;;;16.70;99.90;;;;;;5002338;28;20022;-83
2023/10/12 23:19:46;;;;;;;17.30;10.23;;;16.60;99.90;;;;;;5016535;28;20025;-83
2023/10/12 23:25:00;;;;;;;20.10;9.90;;;16.60;99.90;;;;;;5021860;28;20154;-85
2023/10/12 23:27:29;;;;;;;20.50;9.85;;;16.60;99.90;;;;;;5004575;28;20031;-84
2023/10/12 23:29:56;;;;;;;18.60;9.90;;;16.60;99.90;;;;;;5016332;28;21413;-84
2023/10/12 23:32:22;;;;;;;19.23;9.35;;;16.60;99.90;;;;;;5001351;28;20452;-85
2023/10/12 23:34:54;;;;;;;14.00;9.68;;;16.60;99.90;;;;;;5017400;28;20034;-84
2023/10/12 23:37:25;;;;;;;17.52;9.45;;;16.60;99.90;;;;;;5006268;28;21216;-82
2023/10/12 23:39:55;;;;;;;19.15;9.57;;;16.60;99.90;;;;;;5000273;28;20026;-86
2023/10/12 23:42:22;;;;;;;17.92;9.15;;;16.60;99.90;;;;;;5004120;28;20041;-85
2023/10/12 23:47:24;;;;;;;14.38;10.02;;;16.60;99.90;;;;;;5018628;28;20025;-85
2023/10/12 23:52:52;;;;;;;15.90;8.60;;;16.60;99.90;;;;;;5020902;28;20863;-81
2023/10/12 23:55:29;;;;;;;16.27;8.95;;;16.60;99.90;;;;;;5009823;28;20347;-84
2023/10/12 23:58:08;;;;;;;15.85;8.48;;;16.60;99.90;;;;;;5008993;28;20029;-85
